Time;durP1;ratioP1;P1;durP2;ratioP2;P2;SDS_P1;SDS_P2;PMS_P1;PMS_P2;Temp;Humidity;BMP_temperature;BMP_pressure;BME280_temperature;BME280_humidity;BME280_pressure;Samples;Min_cycle;Max_cycle;Signal;HPM_P1;HPM_P2
2023/01/14 00:01:26;;;;;;;1.65;1.55;;;;;;;4.17;92.20;99891.75;5095806;28;20544;-64
2023/01/14 00:03:56;;;;;;;2.53;1.25;;;;;;;4.23;92.23;99894.44;5096136;28;20448;-64
2023/01/14 00:06:26;;;;;;;;;;;;;;;4.29;92.22;99902.19;5096106;28;20044;-65
2023/01/14 00:08:56;;;;;;;3.65;2.80;;;;;;;4.30;92.15;99904.75;5095746;28;19965;-65
2023/01/14 00:14:08;;;;;;;1.20;1.10;;;;;;;4.38;92.74;99902.44;5095383;28;20520;-64
2023/01/14 00:16:38;;;;;;;4.75;2.78;;;;;;;4.40;92.35;99900.81;5095642;28;20044;-64
2023/01/14 00:19:07;;;;;;;2.60;2.03;;;;;;;4.47;92.65;99903.53;5095900;28;20044;-64
2023/01/14 00:21:37;;;;;;;3.67;2.15;;;;;;;4.48;92.59;99894.31;5095456;28;20047;-65
2023/01/14 00:24:06;;;;;;;1.88;1.77;;;;;;;4.46;92.65;99908.56;5108970;28;20063;-64
2023/01/14 00:26:35;;;;;;;;;;;;;;;4.47;92.68;99911.13;5115731;28;20044;-64
2023/01/14 00:29:04;;;;;;;2.42;2.22;;;;;;;4.44;92.68;99907.69;5115739;28;19923;-64
2023/01/14 00:31:33;;;;;;;2.38;2.17;;;;;;;4.50;93.39;99912.88;5114406;28;20042;-64
2023/01/14 00:34:03;;;;;;;3.30;2.33;;;;;;;4.54;92.80;99917.19;5115423;28;20063;-64
2023/01/14 00:36:32;;;;;;;1.38;1.30;;;;;;;4.57;93.19;99922.34;5114735;28;20405;-64
2023/01/14 00:39:01;;;;;;;3.40;3.10;;;;;;;4.57;92.96;99927.38;5115497;28;20039;-64
2023/01/14 00:41:30;;;;;;;1.50;1.40;;;;;;;4.56;92.89;99923.13;5115480;28;20046;-64
2023/01/14 00:44:00;;;;;;;1.80;1.70;;;;;;;4.57;93.08;99919.81;5115387;28;20114;-65
2023/01/14 00:46:31;;;;;;;3.30;3.00;;;;;;;4.57;93.22;99924.88;5115689;28;20730;-64
2023/01/14 00:49:00;;;;;;;8.68;4.18;;;;;;;4.60;93.46;99930.00;5114157;28;20522;-64
2023/01/14 00:51:32;;;;;;;3.88;3.55;;;;;;;4.62;93.39;99933.44;5114092;28;20130;-64
2023/01/14 00:54:03;;;;;;;4.72;3.20;;;;;;;4.64;93.06;99929.25;5115210;28;20047;-64
2023/01/14 00:56:33;;;;;;;3.50;3.30;;;;;;;4.65;92.97;99933.53;5114991;28;20134;-64
2023/01/14 00:59:03;;;;;;;4.72;4.43;;;;;;;4.63;93.18;99925.88;5115427;28;20048;-64
2023/01/14 01:01:31;;;;;;;2.83;2.63;;;;;;;4.55;93.03;99912.19;5113640;28;20122;-64
2023/01/14 01:04:03;;;;;;;2.00;1.90;;;;;;;4.57;93.31;99930.78;5114213;28;20092;-64
2023/01/14 01:06:34;;;;;;;4.90;2.20;;;;;;;4.61;93.57;99926.66;5115373;28;20082;-64
2023/01/14 01:09:03;;;;;;;4.38;2.13;;;;;;;4.65;92.99;99933.53;5115230;28;20043;-64
2023/01/14 01:11:32;;;;;;;1.73;1.58;;;;;;;4.66;93.18;99930.16;5113799;28;20051;-64
2023/01/14 01:14:01;;;;;;;5.90;4.90;;;;;;;4.67;93.49;99936.94;5114814;28;20036;-64
2023/01/14 01:16:30;;;;;;;3.47;3.15;;;;;;;4.68;93.54;99938.63;5097177;28;20047;-65
2023/01/14 01:18:59;;;;;;;2.67;2.47;;;;;;;4.68;93.51;99938.63;5113859;28;20059;-64
2023/01/14 01:21:28;;;;;;;4.43;3.58;;;;;;;4.69;93.57;99935.31;5114659;28;20044;-64
2023/01/14 01:23:58;;;;;;;5.97;3.60;;;;;;;4.70;93.21;99940.38;5113432;28;20074;-64
2023/01/14 01:26:27;;;;;;;3.78;3.17;;;;;;;4.71;93.18;99939.59;5115253;28;20664;-64
2023/01/14 01:28:58;;;;;;;1.88;1.70;;;;;;;4.72;93.46;99930.34;5114503;28;20040;-64
2023/01/14 01:31:28;;;;;;;4.78;4.18;;;;;;;4.72;93.11;99930.34;5114581;28;20134;-64
2023/01/14 01:33:57;;;;;;;3.97;3.67;;;;;;;4.72;93.04;99925.28;5114527;27;20139;-64
2023/01/14 01:36:29;;;;;;;11.30;5.83;;;;;;;4.71;93.26;99923.56;5114384;28;20047;-64
2023/01/14 01:38:59;;;;;;;2.90;2.55;;;;;;;4.71;93.39;99921.03;5113235;28;20054;-64
2023/01/14 01:41:30;;;;;;;2.70;1.80;;;;;;;4.69;93.30;99925.19;5114393;28;20491;-64
2023/01/14 01:44:02;;;;;;;6.63;2.28;;;;;;;4.69;93.18;99930.25;5114663;28;20447;-64
2023/01/14 01:46:31;;;;;;;4.53;2.50;;;;;;;4.69;93.28;99933.63;5114259;28;20043;-64
2023/01/14 01:49:06;;;;;;;4.10;3.33;;;;;;;4.66;93.02;99925.09;5114232;28;20043;-64
2023/01/14 01:51:41;;;;;;;2.38;2.20;;;;;;;4.65;93.37;99923.41;5114802;28;20108;-65
2023/01/14 01:54:12;;;;;;;2.28;1.65;;;;;;;4.62;93.16;99925.84;5113028;28;20044;-64
2023/01/14 01:56:46;;;;;;;4.70;2.38;;;;;;;4.65;93.31;99931.00;5112854;28;20066;-64
2023/01/14 01:59:20;;;;;;;3.95;2.80;;;;;;;4.64;93.08;99926.75;5113554;28;20063;-65
2023/01/14 02:01:51;;;;;;;2.58;2.38;;;;;;;4.61;93.04;99924.13;5114128;28;20096;-64
2023/01/14 02:04:20;;;;;;;2.00;1.90;;;;;;;4.61;93.02;99936.75;5112873;28;20047;-64
2023/01/14 02:06:49;;;;;;;1.97;1.87;;;;;;;4.60;93.09;99930.00;5113043;28;20048;-65
2023/01/14 02:09:21;;;;;;;3.03;2.70;;;;;;;4.60;93.45;99930.00;5113952;28;20291;-64
2023/01/14 02:12:17;;;;;;;5.00;4.45;;;;;;;4.60;93.26;99935.06;5114012;28;20040;-64
2023/01/14 02:15:01;;;;;;;2.53;2.33;;;;;;;4.57;93.36;99935.84;5113602;28;20051;-64
2023/01/14 02:17:43;;;;;;;7.18;2.20;;;;;;;4.57;93.12;99935.84;5112700;28;20108;-64
2023/01/14 02:20:24;;;;;;;3.35;3.10;;;;;;;4.60;93.58;99938.47;5112801;28;20073;-64
2023/01/14 02:23:34;;;;;;;3.00;2.60;;;;;;;4.62;93.49;99936.81;5113960;28;20052;-64
2023/01/14 02:26:34;;;;;;;2.33;2.13;;;;;;;4.63;93.51;99940.22;5112574;28;20078;-64
2023/01/14 02:29:33;;;;;;;2.17;2.03;;;;;;;4.63;93.20;99940.22;5112619;28;20156;-64
2023/01/14 02:32:06;;;;;;;;;;;;;;;4.62;93.38;99948.59;5113038;28;20134;-64
2023/01/14 02:34:45;;;;;;;4.00;1.83;;;;;;;4.64;93.54;99946.97;5112678;28;19926;-64
2023/01/14 02:37:22;;;;;;;4.40;3.67;;;;;;;4.64;93.25;99949.50;5112889;28;20096;-64
2023/01/14 02:40:00;;;;;;;2.53;2.33;;;;;;;4.63;93.48;99955.38;5113736;28;20052;-64
2023/01/14 02:45:30;;;;;;;6.47;3.20;;;;;;;4.65;93.64;99961.31;5114281;28;20465;-64
2023/01/14 02:48:03;;;;;;;2.50;2.35;;;;;;;4.65;93.62;99954.56;5112714;28;20052;-64
2023/01/14 02:50:37;;;;;;;4.07;2.65;;;;;;;4.69;93.85;99953.00;5113984;28;20075;-64
2023/01/14 02:53:10;;;;;;;4.85;4.32;;;;;;;4.72;93.50;99948.91;5112497;28;20493;-64
2023/01/14 02:55:40;;;;;;;2.15;1.48;;;;;;;4.72;93.30;99950.56;5112780;28;20043;-64
2023/01/14 02:58:34;;;;;;;3.17;2.95;;;;;;;4.69;93.32;99955.53;5113557;28;20070;-64
2023/01/14 03:01:21;;;;;;;3.78;3.47;;;;;;;4.68;93.38;99953.78;5112433;28;20077;-64
2023/01/14 03:04:10;;;;;;;4.13;2.92;;;;;;;4.64;93.64;99952.00;5112390;28;20067;-64
2023/01/14 03:06:49;;;;;;;2.88;2.63;;;;;;;4.58;93.05;99954.38;5112652;28;20062;-64
2023/01/14 03:09:31;;;;;;;2.08;1.98;;;;;;;4.55;93.48;99964.41;5112414;28;20043;-64
2023/01/14 03:12:11;;;;;;;0.80;0.80;;;;;;;4.51;93.54;99960.09;5113801;28;20151;-64
2023/01/14 03:14:44;;;;;;;4.55;3.03;;;;;;;4.48;93.77;99962.53;5112563;28;20051;-64
2023/01/14 03:17:21;;;;;;;3.92;3.63;;;;;;;4.52;93.65;99976.94;5112834;28;20424;-64
2023/01/14 03:19:58;;;;;;;5.10;3.33;;;;;;;4.54;93.60;99975.31;5113860;28;20403;-64
2023/01/14 03:22:32;;;;;;;3.10;2.35;;;;;;;4.55;93.58;99979.56;5113383;28;20082;-64
2023/01/14 03:25:04;;;;;;;4.78;1.85;;;;;;;4.52;93.50;99967.72;5112496;28;20047;-64
2023/01/14 03:27:38;;;;;;;7.65;3.78;;;;;;;4.56;93.59;99974.53;5115593;28;20048;-64
2023/01/14 03:30:14;;;;;;;3.17;2.47;;;;;;;4.57;93.60;99976.28;5116787;28;20134;-64
2023/01/14 03:32:50;;;;;;;1.65;1.55;;;;;;;4.58;93.41;99979.66;5117224;28;20116;-64
2023/01/14 03:35:23;;;;;;;1.35;1.27;;;;;;;4.58;93.59;99982.19;5117164;28;20074;-64
2023/01/14 03:37:59;;;;;;;4.18;3.85;;;;;;;4.51;93.64;99982.84;5117103;28;20096;-64
2023/01/14 03:40:31;;;;;;;1.55;1.45;;;;;;;4.46;93.75;99986.91;5117047;28;20112;-64
2023/01/14 03:43:06;;;;;;;3.35;3.13;;;;;;;4.47;93.76;99983.53;5116660;28;20047;-64
2023/01/14 03:45:39;;;;;;;6.18;2.60;;;;;;;4.45;93.55;99986.03;5116945;28;20094;-64
2023/01/14 03:48:11;;;;;;;0.80;0.75;;;;;;;4.44;93.95;99996.13;5116552;28;20039;-64
2023/01/14 03:50:49;;;;;;;3.00;2.60;;;;;;;4.47;93.38;99998.69;5116790;28;20040;-64
2023/01/14 03:53:24;;;;;;;3.97;3.65;;;;;;;4.47;93.51;99998.69;5116738;28;20120;-64
2023/01/14 03:56:02;;;;;;;6.10;5.40;;;;;;;4.49;93.88;100002.13;5116242;28;20048;-64
2023/01/14 03:58:40;;;;;;;1.63;1.52;;;;;;;4.51;94.01;100005.59;5115212;28;20126;-64
2023/01/14 04:01:14;;;;;;;5.03;4.45;;;;;;;4.52;93.71;100007.28;5116623;28;20039;-64
2023/01/14 04:03:45;;;;;;;2.38;2.22;;;;;;;4.51;93.68;100000.53;5116264;28;20123;-64
2023/01/14 04:06:15;;;;;;;1.85;1.75;;;;;;;4.53;93.79;100003.94;5116253;28;20117;-64
2023/01/14 04:08:44;;;;;;;2.28;2.08;;;;;;;4.47;93.85;99988.59;5116102;28;20031;-64
2023/01/14 04:11:13;;;;;;;4.05;3.75;;;;;;;4.47;93.93;99997.03;5116375;28;20040;-64
2023/01/14 04:16:20;;;;;;;2.03;1.87;;;;;;;4.42;93.62;100000.25;5116691;28;20464;-64
2023/01/14 04:18:51;;;;;;;3.70;3.35;;;;;;;4.38;93.59;100004.38;5116257;28;20047;-64
2023/01/14 04:21:19;;;;;;;9.13;3.15;;;;;;;4.33;93.83;100002.50;5116168;28;20082;-64
2023/01/14 04:23:48;;;;;;;1.50;1.40;;;;;;;4.27;94.00;100009.91;5114985;28;20497;-64
2023/01/14 04:26:17;;;;;;;2.17;2.00;;;;;;;4.25;93.99;100014.91;5116151;28;20428;-64
2023/01/14 04:28:46;;;;;;;1.48;1.33;;;;;;;4.20;93.35;100013.09;5115957;28;20108;-63
2023/01/14 04:31:15;;;;;;;3.78;3.47;;;;;;;4.11;93.71;100012.78;5115637;28;20043;-64
2023/01/14 04:33:43;;;;;;;2.33;2.23;;;;;;;4.13;93.95;100026.34;5116008;28;20048;-64
2023/01/14 04:36:14;;;;;;;3.87;3.10;;;;;;;4.16;93.57;100022.22;5115417;28;20041;-64
2023/01/14 04:38:43;;;;;;;2.80;2.58;;;;;;;4.19;93.87;100026.50;5114659;28;20111;-64
2023/01/14 04:42:26;;;;;;;1.33;1.23;;;;;;;4.20;93.65;100023.19;5115418;28;20088;-64
2023/01/14 04:43:59;;;;;;;2.67;2.47;;;;;;;4.20;94.05;100025.72;5115721;28;20065;-64
2023/01/14 04:46:29;;;;;;;3.05;2.85;;;;;;;4.20;93.92;100028.25;5116212;28;20104;-64
2023/01/14 04:48:57;;;;;;;7.00;3.75;;;;;;;4.18;93.71;100027.31;5115610;28;20094;-64
2023/01/14 04:51:28;;;;;;;3.17;2.55;;;;;;;4.17;93.79;100033.19;5115527;28;20088;-64
2023/01/14 04:53:57;;;;;;;2.28;2.08;;;;;;;4.16;94.08;100036.50;5115309;28;20048;-64
2023/01/14 04:56:25;;;;;;;3.27;3.03;;;;;;;4.19;94.16;100036.63;5114306;28;20145;-64
2023/01/14 04:58:54;;;;;;;2.00;1.90;;;;;;;4.20;93.77;100033.28;5115210;28;20039;-64
2023/01/14 05:01:23;;;;;;;7.93;3.67;;;;;;;4.20;93.88;100033.28;5114035;28;20078;-64
2023/01/14 05:03:54;;;;;;;1.67;1.50;;;;;;;4.23;94.30;100033.34;5115394;28;20043;-64
2023/01/14 05:06:23;;;;;;;6.45;4.00;;;;;;;4.27;94.38;100042.75;5115036;28;20055;-64
2023/01/14 05:08:54;;;;;;;4.07;2.37;;;;;;;4.26;94.57;100036.84;5114001;28;20389;-64
2023/01/14 05:11:23;;;;;;;2.88;2.58;;;;;;;4.29;93.86;100048.72;5115120;28;20279;-64
2023/01/14 05:13:52;;;;;;;3.00;2.80;;;;;;;4.30;93.98;100052.94;5115732;28;20404;-63
2023/01/14 05:16:22;;;;;;;2.55;2.35;;;;;;;4.29;94.25;100058.81;5115087;28;20035;-64
2023/01/14 05:18:51;;;;;;;16.17;2.75;;;;;;;4.28;94.20;100062.13;5114899;28;20473;-64
2023/01/14 05:21:21;;;;;;;3.20;2.93;;;;;;;4.28;94.38;100063.00;5114649;28;20078;-64
2023/01/14 05:23:49;;;;;;;;;;;;;;;4.27;94.13;100066.34;5115706;28;20074;-64
2023/01/14 05:26:20;;;;;;;2.08;1.95;;;;;;;4.29;94.24;100069.78;5114692;28;20335;-64
2023/01/14 05:28:48;;;;;;;7.47;5.35;;;;;;;4.30;94.48;100070.63;5114697;28;20067;-64
2023/01/14 05:31:17;;;;;;;6.17;3.20;;;;;;;4.30;94.08;100070.63;5114480;28;20081;-64
2023/01/14 05:33:47;;;;;;;5.25;4.75;;;;;;;4.28;94.36;100067.19;5114478;28;20044;-64
2023/01/14 05:36:16;;;;;;;1.20;1.10;;;;;;;4.36;94.26;100075.88;5114463;28;20036;-64
2023/01/14 05:38:45;;;;;;;4.87;4.47;;;;;;;4.38;94.59;100077.63;5114693;28;20272;-64
2023/01/14 05:41:14;;;;;;;4.47;3.00;;;;;;;4.40;94.36;100075.16;5114716;28;20096;-64
2023/01/14 05:46:23;;;;;;;2.10;1.90;;;;;;;4.44;94.54;100074.44;5114644;28;20503;-64
2023/01/14 05:48:52;;;;;;;2.73;2.53;;;;;;;4.43;94.70;100072.72;5113915;28;20035;-64
2023/01/14 05:51:21;;;;;;;3.03;2.77;;;;;;;4.38;94.30;100070.06;5114147;28;20296;-64
2023/01/14 05:53:50;;;;;;;4.27;3.87;;;;;;;4.38;94.38;100069.19;5114133;28;20138;-64
2023/01/14 05:56:18;;;;;;;4.47;2.70;;;;;;;4.37;94.57;100067.47;5114222;28;20402;-64
2023/01/14 05:58:49;;;;;;;3.47;2.93;;;;;;;4.35;94.35;100069.09;5114245;28;20051;-64
2023/01/14 06:06:37;;;;;;;1.80;1.70;;;;;;;4.18;94.21;100087.91;5114116;28;20059;-64
2023/01/14 06:09:10;;;;;;;3.95;3.58;;;;;;;4.14;94.16;100091.19;5114088;28;20515;-64
2023/01/14 06:11:41;;;;;;;1.70;1.60;;;;;;;4.07;94.27;100091.00;5113945;28;20086;-64
2023/01/14 06:14:11;;;;;;;3.25;3.03;;;;;;;4.02;94.38;100095.03;5114337;28;20047;-64
2023/01/14 06:16:40;;;;;;;4.18;3.75;;;;;;;3.95;94.46;100093.13;5114234;28;20043;-63
2023/01/14 06:19:10;;;;;;;2.80;2.57;;;;;;;3.92;94.08;100107.31;5113938;28;20254;-64
2023/01/14 06:21:40;;;;;;;6.25;4.05;;;;;;;3.90;94.55;100104.75;5114156;28;20112;-64
2023/01/14 06:24:10;;;;;;;2.00;1.80;;;;;;;3.88;94.29;100101.31;5114235;28;20097;-63
2023/01/14 06:26:38;;;;;;;;;;;;;;;3.86;94.34;100095.34;5114502;28;20097;-63
2023/01/14 06:29:13;;;;;;;4.13;3.63;;;;;;;3.84;94.65;100096.13;5113814;28;19928;-64
2023/01/14 06:31:43;;;;;;;3.70;3.42;;;;;;;3.78;93.86;100089.19;5113763;28;20058;-64
2023/01/14 06:34:12;;;;;;;3.22;2.92;;;;;;;3.72;94.43;100094.03;5113719;28;20043;-64
2023/01/14 06:36:40;;;;;;;3.03;2.17;;;;;;;3.70;94.48;100088.09;5113734;28;20064;-64
2023/01/14 06:39:09;;;;;;;1.33;1.25;;;;;;;3.69;94.57;100083.84;5113644;28;20311;-63
2023/01/14 06:41:38;;;;;;;1.70;1.60;;;;;;;3.69;94.09;100078.81;5113694;28;20052;-64
2023/01/14 06:44:07;;;;;;;12.83;3.67;;;;;;;3.70;94.69;100090.59;5113679;28;20032;-64
2023/01/14 06:46:37;;;;;;;2.33;2.13;;;;;;;3.71;93.91;100087.28;5113662;28;20857;-63
2023/01/14 06:49:06;;;;;;;1.98;1.88;;;;;;;3.71;94.72;100088.94;5113701;28;20100;-64
2023/01/14 06:51:35;;;;;;;5.80;4.22;;;;;;;3.70;94.71;100089.75;5113553;28;20398;-64
2023/01/14 06:54:03;;;;;;;2.77;2.57;;;;;;;3.65;94.78;100086.22;5113467;28;20448;-64
2023/01/14 06:56:34;;;;;;;2.73;2.47;;;;;;;3.59;94.90;100091.94;5113572;28;20115;-64
2023/01/14 06:59:03;;;;;;;2.95;2.38;;;;;;;3.62;94.67;100097.09;5113796;28;20089;-64
2023/01/14 07:01:32;;;;;;;5.20;4.37;;;;;;;3.63;94.52;100098.78;5117121;28;20040;-64
2023/01/14 07:04:02;;;;;;;2.65;2.45;;;;;;;3.56;94.53;100094.34;5117654;28;20027;-64
2023/01/14 07:06:31;;;;;;;11.32;4.15;;;;;;;3.56;94.94;100086.78;5117674;28;20519;-64
2023/01/14 07:09:00;;;;;;;7.23;4.57;;;;;;;3.65;95.24;100091.25;5117238;28;20097;-63
2023/01/14 07:11:28;;;;;;;2.53;1.67;;;;;;;3.66;95.28;100086.28;5117365;28;20038;-64
2023/01/14 07:13:57;;;;;;;5.90;2.93;;;;;;;3.67;94.78;100095.53;5117167;28;20043;-64
2023/01/14 07:16:26;;;;;;;4.93;2.60;;;;;;;3.68;95.29;100102.31;5117442;28;20375;-64
2023/01/14 07:18:55;;;;;;;5.28;3.60;;;;;;;3.65;94.70;100107.25;5117133;28;20039;-64
2023/01/14 07:21:25;;;;;;;7.07;5.43;;;;;;;3.69;95.27;100104.06;5117558;28;20042;-63
2023/01/14 07:23:54;;;;;;;3.28;2.97;;;;;;;3.74;95.11;100101.69;5117355;28;20047;-64
2023/01/14 07:26:23;;;;;;;3.20;2.95;;;;;;;3.83;95.21;100107.88;5116901;28;20043;-64
2023/01/14 07:28:53;;;;;;;2.40;1.88;;;;;;;3.91;95.67;100103.91;5116945;28;20040;-64
2023/01/14 07:31:22;;;;;;;3.45;3.13;;;;;;;3.95;95.12;100102.38;5116992;28;20050;-64
2023/01/14 07:33:51;;;;;;;3.30;3.00;;;;;;;3.97;95.15;100116.75;5116755;28;20043;-65
2023/01/14 07:36:20;;;;;;;2.07;1.93;;;;;;;4.03;95.19;100122.00;5116704;28;20046;-64
2023/01/14 07:38:51;;;;;;;3.22;3.03;;;;;;;4.02;95.72;100120.28;5104983;28;20050;-64
2023/01/14 07:41:20;;;;;;;8.32;4.57;;;;;;;4.10;95.62;100127.25;5096661;28;20433;-64
2023/01/14 07:43:50;;;;;;;2.15;2.05;;;;;;;4.15;95.14;100125.75;5096195;28;20047;-64
2023/01/14 07:46:18;;;;;;;2.15;2.03;;;;;;;4.20;95.42;100137.69;5096198;28;20040;-64
2023/01/14 07:48:47;;;;;;;5.68;2.38;;;;;;;4.22;95.69;100136.09;5096736;28;20379;-64
2023/01/14 07:51:20;;;;;;;7.43;4.00;;;;;;;4.28;95.89;100137.94;5111201;28;20393;-64
2023/01/14 07:53:51;;;;;;;3.17;2.95;;;;;;;4.33;95.77;100142.31;5116503;28;20047;-64
2023/01/14 07:56:20;;;;;;;1.58;1.50;;;;;;;4.38;95.42;100155.97;5116440;28;20074;-65
2023/01/14 07:58:49;;;;;;;2.10;1.55;;;;;;;4.40;95.33;100153.47;5116448;28;20546;-64
2023/01/14 08:01:18;;;;;;;5.10;3.60;;;;;;;4.43;95.27;100143.47;5116258;28;20036;-64
2023/01/14 08:03:46;;;;;;;3.63;3.33;;;;;;;4.46;95.45;100148.63;5116231;28;20093;-64
2023/01/14 08:06:15;;;;;;;19.73;3.27;;;;;;;4.43;95.36;100149.38;5116546;28;20046;-65
2023/01/14 08:08:44;;;;;;;2.60;2.23;;;;;;;4.48;95.57;100147.00;5116229;28;20118;-64
2023/01/14 08:11:14;;;;;;;6.15;3.97;;;;;;;4.53;95.40;100138.75;5115495;28;20046;-64
2023/01/14 08:13:43;;;;;;;1.90;1.75;;;;;;;4.33;95.57;100090.94;5116080;28;20044;-65
2023/01/14 08:16:13;;;;;;;5.70;4.37;;;;;;;4.69;95.71;100140.06;5116350;28;20453;-64
2023/01/14 08:18:42;;;;;;;3.28;2.88;;;;;;;4.84;95.26;100158.22;5116096;28;20043;-64
2023/01/14 08:21:11;;;;;;;2.65;2.33;;;;;;;4.97;95.41;100160.28;5115902;28;20081;-64
2023/01/14 08:23:40;;;;;;;4.65;2.88;;;;;;;5.02;95.60;100152.81;5115884;28;20047;-64
2023/01/14 08:26:11;;;;;;;9.77;4.20;;;;;;;5.06;95.06;100149.59;5115781;28;20063;-64
2023/01/14 08:28:42;;;;;;;2.80;2.60;;;;;;;5.02;95.54;100147.75;5115794;28;20044;-64
2023/01/14 08:31:13;;;;;;;1.38;1.27;;;;;;;5.08;95.15;100156.41;5115681;28;20503;-64
2023/01/14 08:33:43;;;;;;;3.03;2.83;;;;;;;5.14;95.29;100154.03;5115749;27;20051;-64
2023/01/14 08:36:19;;;;;;;14.38;3.10;;;;;;;5.19;95.26;100156.69;5116230;28;20044;-64
2023/01/14 08:38:49;;;;;;;6.43;3.15;;;;;;;5.22;95.46;100146.66;5115610;28;20125;-64
2023/01/14 08:41:19;;;;;;;2.88;2.58;;;;;;;5.26;95.02;100158.56;5114859;28;20121;-64
2023/01/14 08:43:51;;;;;;;1.75;1.30;;;;;;;5.29;95.21;100162.06;5115432;28;20093;-64
2023/01/14 08:46:23;;;;;;;2.65;1.90;;;;;;;5.29;94.99;100154.47;5114387;28;20044;-64
2023/01/14 08:48:55;;;;;;;1.30;1.20;;;;;;;5.39;95.32;100166.56;5114872;28;20489;-63
2023/01/14 08:51:26;;;;;;;5.03;3.47;;;;;;;5.44;95.32;100169.22;5115479;28;20397;-64
2023/01/14 08:53:56;;;;;;;4.05;3.33;;;;;;;5.49;95.17;100171.88;5115587;27;20432;-64
2023/01/14 08:56:24;;;;;;;2.88;2.63;;;;;;;5.63;94.92;100166.38;5115013;28;20043;-64
2023/01/14 08:58:54;;;;;;;7.33;3.67;;;;;;;5.81;94.79;100176.09;5115430;28;20055;-64
2023/01/14 09:01:23;;;;;;;3.60;3.30;;;;;;;5.87;94.85;100167.06;5114975;28;20319;-63
2023/01/14 09:03:57;;;;;;;6.77;3.40;;;;;;;5.90;94.93;100172.16;5114139;28;20035;-64
2023/01/14 09:06:26;;;;;;;3.20;2.90;;;;;;;5.92;94.55;100174.75;5114865;28;20366;-63
2023/01/14 09:19:38;;;;;;;3.50;3.20;;;;;;;6.52;93.73;100191.47;5114776;28;20047;-63
2023/01/14 09:22:08;;;;;;;1.90;1.80;;;;;;;6.55;93.56;100186.47;5114738;28;20067;-64
2023/01/14 09:24:37;;;;;;;3.45;2.15;;;;;;;6.58;93.76;100189.06;5113770;28;20047;-63
2023/01/14 09:27:05;;;;;;;4.67;2.60;;;;;;;6.57;93.14;100189.91;5115154;28;20046;-63
2023/01/14 09:29:36;;;;;;;5.22;3.03;;;;;;;6.64;92.48;100196.84;5115152;28;20276;-63
2023/01/14 09:32:09;;;;;;;1.83;1.73;;;;;;;6.78;92.05;100183.59;5114751;28;20048;-64
2023/01/14 09:34:39;;;;;;;9.68;2.15;;;;;;;6.93;92.66;100181.41;5114437;28;20142;-63
2023/01/14 09:37:08;;;;;;;2.28;2.03;;;;;;;7.03;91.46;100170.63;5114714;28;20104;-64
2023/01/14 09:39:37;;;;;;;1.07;0.97;;;;;;;7.18;91.51;100165.84;5114682;28;20108;-64
2023/01/14 09:42:08;;;;;;;2.40;2.00;;;;;;;7.36;90.91;100168.78;5115191;28;20036;-64
2023/01/14 09:44:41;;;;;;;2.35;2.17;;;;;;;7.47;90.60;100157.13;5114663;28;20126;-64
2023/01/14 09:47:13;;;;;;;3.67;2.70;;;;;;;7.54;90.03;100161.50;5113762;28;20154;-64
2023/01/14 09:49:42;;;;;;;2.05;1.30;;;;;;;7.50;89.68;100153.81;5115053;28;20481;-64
2023/01/14 09:52:38;;;;;;;1.15;1.08;;;;;;;7.50;89.14;100164.81;5114126;28;20085;-63
2023/01/14 09:55:15;;;;;;;1.15;1.05;;;;;;;7.55;87.90;100163.22;5114876;28;20043;-64
2023/01/14 09:57:51;;;;;;;5.57;1.58;;;;;;;7.62;87.07;100152.34;5114288;28;20071;-64
2023/01/14 10:00:33;;;;;;;1.05;0.98;;;;;;;7.79;86.33;100150.13;5113247;28;20078;-64
2023/01/14 10:03:19;;;;;;;1.20;1.13;;;;;;;7.92;86.05;100150.34;5114188;28;20048;-64
2023/01/14 10:05:56;;;;;;;5.25;1.75;;;;;;;8.15;85.35;100139.72;5114393;28;20054;-63
2023/01/14 10:08:28;;;;;;;11.13;2.63;;;;;;;8.28;85.11;100141.69;5114363;28;20130;-63
2023/01/14 10:10:57;;;;;;;1.58;1.38;;;;;;;8.48;85.05;100137.72;5114039;28;20046;-63
2023/01/14 10:13:37;;;;;;;3.90;3.53;;;;;;;8.69;84.40;100132.94;5113886;28;20130;-63
2023/01/14 10:16:11;;;;;;;4.25;2.35;;;;;;;8.74;83.26;100128.78;5113115;28;20054;-63
2023/01/14 10:18:49;;;;;;;3.22;2.90;;;;;;;8.77;81.71;100118.66;5113915;28;20070;-63
2023/01/14 10:21:25;;;;;;;1.75;1.58;;;;;;;8.80;81.35;100118.69;5114280;28;20135;-63
2023/01/14 10:23:54;;;;;;;2.92;2.03;;;;;;;8.91;81.47;100114.59;5113819;28;20052;-64
2023/01/14 10:26:27;;;;;;;6.57;2.40;;;;;;;8.98;80.95;100121.47;5114088;28;20070;-63
2023/01/14 10:29:00;;;;;;;3.80;1.48;;;;;;;9.13;79.75;100121.66;5113824;28;20272;-63
2023/01/14 10:31:33;;;;;;;2.15;1.60;;;;;;;9.27;79.87;100120.13;5113825;28;20142;-64
2023/01/14 10:34:02;;;;;;;2.58;1.75;;;;;;;9.54;79.44;100119.59;5113745;28;20095;-63
2023/01/14 10:36:31;;;;;;;1.10;1.00;;;;;;;9.68;78.80;100122.25;5117621;28;20142;-64
2023/01/14 10:39:02;;;;;;;1.33;1.23;;;;;;;9.69;78.28;100114.66;5118087;28;20058;-63
2023/01/14 10:44:18;;;;;;;3.20;1.50;;;;;;;9.64;76.81;100116.28;5117807;28;20043;-63
2023/01/14 10:46:48;;;;;;;0.93;0.88;;;;;;;9.66;76.25;100108.66;5117785;28;20047;-63
2023/01/14 10:49:21;;;;;;;0.93;0.93;;;;;;;9.89;76.41;100107.16;5117688;28;20130;-64
2023/01/14 10:51:50;;;;;;;2.67;1.10;;;;;;;10.04;75.71;100112.41;5117619;28;20043;-64
2023/01/14 10:54:22;;;;;;;1.30;1.20;;;;;;;10.11;75.38;100109.06;5117623;28;20057;-64
2023/01/14 10:56:55;;;;;;;1.50;1.40;;;;;;;10.10;75.14;100097.16;5117577;28;20426;-63
2023/01/14 10:59:39;;;;;;;1.52;1.42;;;;;;;10.19;74.65;100102.34;5117883;28;20049;-64
2023/01/14 11:02:22;;;;;;;1.25;1.15;;;;;;;10.36;74.40;100100.78;5117405;28;20043;-64
2023/01/14 11:04:51;;;;;;;1.35;1.17;;;;;;;10.43;73.92;100102.53;5117423;28;20047;-63
2023/01/14 11:07:27;;;;;;;2.43;1.57;;;;;;;10.31;73.77;100092.25;5117740;28;20126;-63
2023/01/14 11:10:00;;;;;;;1.80;1.67;;;;;;;10.15;73.15;100092.94;5117293;28;20089;-64
2023/01/14 11:12:32;;;;;;;1.65;1.45;;;;;;;10.09;73.44;100105.63;5116143;28;20058;-63
2023/01/14 11:15:02;;;;;;;1.25;0.98;;;;;;;9.94;74.13;100106.38;5117474;28;20130;-64
2023/01/14 11:17:33;;;;;;;4.65;2.00;;;;;;;10.00;74.17;100100.47;5117528;28;20076;-63
2023/01/14 11:20:20;;;;;;;6.00;1.20;;;;;;;10.00;74.29;100103.03;5117110;28;20048;-64
2023/01/14 11:22:57;;;;;;;0.50;0.50;;;;;;;9.99;74.05;100091.09;5117073;28;20054;-63
2023/01/14 11:25:26;;;;;;;3.10;1.75;;;;;;;10.11;73.45;100086.09;5117391;28;20050;-63
2023/01/14 11:27:57;;;;;;;1.77;1.55;;;;;;;10.30;73.14;100085.41;5116908;28;20106;-64
2023/01/14 11:30:26;;;;;;;0.57;0.57;;;;;;;10.39;72.50;100082.94;5117310;28;20067;-64
2023/01/14 11:32:59;;;;;;;0.60;0.60;;;;;;;10.46;72.17;100081.28;5117035;28;20039;-64
2023/01/14 11:35:32;;;;;;;1.45;1.35;;;;;;;10.56;70.97;100071.13;5117452;28;20276;-64
2023/01/14 11:38:06;;;;;;;0.57;0.57;;;;;;;10.55;70.64;100074.53;5116880;28;20051;-64
2023/01/14 11:43:17;;;;;;;0.57;0.57;;;;;;;10.82;70.45;100072.97;5116996;28;20081;-64
2023/01/14 11:45:47;;;;;;;0.60;0.60;;;;;;;10.89;70.09;100077.25;5116599;28;20063;-64
2023/01/14 11:48:27;;;;;;;0.47;0.47;;;;;;;10.84;69.91;100073.81;5115917;28;20089;-64
2023/01/14 11:51:00;;;;;;;0.88;0.85;;;;;;;10.64;70.04;100064.38;5116934;28;20066;-64
2023/01/14 11:53:44;;;;;;;1.00;1.00;;;;;;;10.39;70.23;100065.06;5115539;28;20047;-63
2023/01/14 11:56:19;;;;;;;0.52;0.52;;;;;;;10.17;70.34;100068.34;5116812;28;20134;-63
2023/01/14 11:58:48;;;;;;;0.82;0.82;;;;;;;9.92;70.31;100079.16;5116675;28;20044;-63
2023/01/14 12:01:26;;;;;;;1.30;1.13;;;;;;;9.76;70.93;100079.88;5116575;28;20393;-63
2023/01/14 12:04:04;;;;;;;0.82;0.82;;;;;;;9.74;71.80;100081.56;5116383;28;20047;-63
2023/01/14 12:06:47;;;;;;;1.77;1.57;;;;;;;9.74;72.00;100084.94;5116604;28;20043;-63
2023/01/14 12:09:23;;;;;;;0.82;0.82;;;;;;;9.67;72.42;100079.78;5116521;28;20458;-63
2023/01/14 12:12:00;;;;;;;0.98;0.85;;;;;;;9.58;72.74;100080.53;5116476;28;20065;-63
2023/01/14 12:17:22;;;;;;;1.33;1.23;;;;;;;9.53;73.36;100071.13;5116358;28;20455;-63
2023/01/14 12:19:59;;;;;;;1.05;0.95;;;;;;;9.42;72.81;100061.72;5116274;28;20066;-63
2023/01/14 12:22:34;;;;;;;0.93;0.93;;;;;;;9.35;73.91;100052.31;5115910;28;20117;-63
2023/01/14 12:25:24;;;;;;;1.33;0.98;;;;;;;9.50;73.71;100043.97;5116280;28;20075;-63
2023/01/14 12:28:00;;;;;;;0.50;0.50;;;;;;;9.87;73.54;100033.22;5116007;28;20182;-63
2023/01/14 12:30:47;;;;;;;1.13;1.05;;;;;;;10.40;72.26;100018.31;5115894;28;20043;-63
2023/01/14 12:33:24;;;;;;;0.70;0.70;;;;;;;10.84;70.88;99997.22;5115606;28;20050;-63
2023/01/14 12:36:00;;;;;;;0.82;0.82;;;;;;;11.30;69.22;99999.03;5115948;28;20382;-62